createdAt,value
2023-02-08T00:04:23.869Z,24.20
2023-02-08T00:07:05.142Z,23.77
2023-02-08T00:09:44.152Z,23.88
2023-02-08T00:15:36.555Z,24.10
2023-02-08T00:24:58.985Z,24.85
2023-02-08T00:27:40.861Z,27.45
2023-02-08T00:30:19.186Z,28.00
2023-02-08T00:33:03.781Z,28.63
2023-02-08T00:35:38.749Z,26.70
2023-02-08T00:38:14.510Z,29.52
2023-02-08T00:41:03.974Z,32.45
2023-02-08T00:43:47.427Z,29.95
2023-02-08T00:46:25.276Z,31.65
2023-02-08T00:49:07.083Z,37.80
2023-02-08T00:54:42.693Z,28.40
2023-02-08T00:57:25.483Z,39.13
2023-02-08T01:00:05.851Z,46.17
2023-02-08T01:02:45.984Z,50.92
2023-02-08T01:05:28.109Z,37.53
2023-02-08T01:08:08.569Z,37.47
2023-02-08T01:10:44.162Z,46.55
2023-02-08T01:13:25.579Z,36.70
2023-02-08T01:16:08.812Z,36.95
2023-02-08T01:18:49.746Z,37.80
2023-02-08T01:21:33.252Z,31.40
2023-02-08T01:24:14.662Z,30.93
2023-02-08T01:27:06.563Z,19.50
2023-02-08T01:29:51.269Z,21.73
2023-02-08T01:32:40.016Z,24.15
2023-02-08T01:35:42.678Z,27.07
2023-02-08T01:38:36.418Z,26.55
2023-02-08T01:41:17.347Z,26.27
2023-02-08T01:44:32.407Z,27.67
2023-02-08T01:50:01.643Z,19.53
2023-02-08T01:52:47.987Z,25.55
2023-02-08T01:58:10.789Z,23.45
2023-02-08T02:00:47.325Z,21.90
2023-02-08T02:03:23.761Z,24.02
2023-02-08T02:06:02.878Z,20.90
2023-02-08T02:08:40.448Z,17.30
2023-02-08T02:11:33.892Z,20.15
2023-02-08T02:14:13.811Z,16.63
2023-02-08T02:17:04.448Z,17.20
2023-02-08T02:20:05.879Z,20.17
2023-02-08T02:23:07.404Z,17.48
2023-02-08T02:26:05.014Z,17.80
2023-02-08T02:28:40.539Z,21.98
2023-02-08T02:32:06.147Z,16.42
2023-02-08T02:34:51.120Z,16.80
2023-02-08T02:37:50.020Z,21.53
2023-02-08T02:40:27.168Z,19.60
2023-02-08T02:43:42.668Z,17.00
2023-02-08T02:46:37.685Z,18.40
2023-02-08T02:49:23.030Z,15.80
2023-02-08T02:52:16.966Z,15.10
2023-02-08T02:55:03.869Z,18.40
2023-02-08T02:58:02.669Z,15.40
2023-02-08T03:03:38.880Z,12.52
2023-02-08T03:06:34.818Z,15.05
2023-02-08T03:09:47.910Z,12.05
2023-02-08T03:12:52.476Z,12.20
2023-02-08T03:16:03.690Z,14.15
2023-02-08T03:18:47.490Z,14.65
2023-02-08T03:21:35.909Z,15.30
2023-02-08T03:30:18.878Z,16.15
2023-02-08T03:33:22.503Z,13.47
2023-02-08T03:39:17.537Z,14.55
2023-02-08T03:42:15.370Z,15.20
2023-02-08T03:44:59.028Z,16.10
2023-02-08T03:47:56.926Z,15.02
2023-02-08T03:50:52.294Z,17.08
2023-02-08T03:53:55.394Z,20.17
2023-02-08T03:56:36.346Z,18.20
2023-02-08T03:59:32.402Z,16.63
2023-02-08T04:02:14.693Z,18.25
2023-02-08T04:04:54.290Z,19.27
2023-02-08T04:07:35.313Z,17.50
2023-02-08T04:10:27.480Z,16.63
2023-02-08T04:13:13.342Z,18.48
2023-02-08T04:15:50.508Z,16.70
2023-02-08T04:18:40.802Z,16.05
2023-02-08T04:21:20.960Z,13.88
2023-02-08T04:24:11.324Z,23.73
2023-02-08T04:26:51.394Z,16.25
2023-02-08T04:29:31.170Z,16.05
2023-02-08T04:32:13.153Z,16.25
2023-02-08T04:34:54.355Z,19.80
2023-02-08T04:37:30.457Z,17.65
2023-02-08T04:40:27.637Z,19.52
2023-02-08T04:43:06.301Z,16.90
2023-02-08T04:45:48.836Z,15.90
2023-02-08T04:48:28.959Z,18.42
2023-02-08T04:51:04.559Z,16.90
2023-02-08T04:53:48.586Z,15.70
2023-02-08T04:56:31.230Z,17.35
2023-02-08T04:59:31.405Z,17.05
2023-02-08T05:02:13.673Z,15.52
2023-02-08T05:04:50.487Z,21.55
2023-02-08T05:07:39.118Z,19.55
2023-02-08T05:10:32.249Z,20.45
2023-02-08T05:17:14.380Z,27.45
2023-02-08T05:19:51.714Z,19.80
2023-02-08T05:22:36.909Z,19.17
2023-02-08T05:25:21.012Z,21.03
2023-02-08T05:28:08.151Z,26.98
2023-02-08T05:30:58.812Z,20.95
2023-02-08T05:33:38.541Z,18.83
2023-02-08T05:36:24.497Z,23.40
2023-02-08T05:39:00.973Z,20.70
2023-02-08T05:41:36.461Z,20.13
2023-02-08T05:44:25.025Z,21.17
2023-02-08T05:47:13.589Z,21.95
2023-02-08T05:49:56.162Z,18.90
2023-02-08T06:01:38.008Z,22.73
2023-02-08T06:07:23.117Z,29.57
2023-02-08T06:10:01.756Z,25.58
2023-02-08T06:12:59.229Z,28.42
2023-02-08T06:15:39.551Z,72.68
2023-02-08T06:18:52.398Z,176.45
2023-02-08T06:21:28.684Z,95.23
2023-02-08T06:27:08.436Z,58.25
2023-02-08T06:29:51.702Z,57.55
2023-02-08T06:35:33.879Z,58.88
2023-02-08T06:38:15.829Z,59.60
2023-02-08T06:40:53.842Z,57.45
2023-02-08T06:43:44.097Z,52.07
2023-02-08T06:46:43.565Z,49.30
2023-02-08T06:49:22.785Z,50.17
2023-02-08T06:52:17.159Z,68.33
2023-02-08T06:55:02.967Z,66.80
2023-02-08T06:58:01.519Z,53.03
2023-02-08T07:00:58.361Z,50.85
2023-02-08T07:03:52.356Z,48.07
2023-02-08T07:06:52.679Z,48.15
2023-02-08T07:09:37.840Z,54.50
2023-02-08T07:15:14.331Z,43.15
2023-02-08T07:17:58.658Z,38.20
2023-02-08T07:20:49.882Z,45.25
2023-02-08T07:23:28.149Z,58.70
2023-02-08T07:26:16.233Z,93.83
2023-02-08T07:28:56.885Z,69.90
2023-02-08T07:31:41.117Z,82.35
2023-02-08T07:43:36.802Z,83.97
2023-02-08T07:46:25.443Z,59.03
2023-02-08T07:51:49.220Z,57.43
2023-02-08T07:54:41.193Z,60.35
2023-02-08T07:57:36.708Z,45.55
2023-02-08T08:00:43.325Z,80.95
2023-02-08T08:03:31.622Z,71.80
2023-02-08T08:06:23.318Z,84.30
2023-02-08T08:09:03.084Z,62.87
2023-02-08T08:11:40.015Z,60.53
2023-02-08T08:14:21.530Z,62.10
2023-02-08T08:17:07.010Z,58.08
2023-02-08T08:19:45.344Z,55.13
2023-02-08T08:22:22.145Z,60.40
2023-02-08T08:28:12.499Z,51.67
2023-02-08T08:37:04.266Z,51.20
2023-02-08T08:39:39.328Z,56.05
2023-02-08T08:42:16.092Z,51.25
2023-02-08T08:44:56.081Z,49.17
2023-02-08T08:47:32.781Z,47.90
2023-02-08T08:50:08.534Z,42.65
2023-02-08T08:52:47.241Z,40.60
2023-02-08T08:55:36.350Z,41.50
2023-02-08T08:58:13.045Z,48.22
2023-02-08T09:00:47.963Z,41.53
2023-02-08T09:03:24.152Z,41.20
2023-02-08T09:06:02.223Z,43.80
2023-02-08T09:11:30.238Z,45.50
2023-02-08T09:14:06.995Z,43.70
2023-02-08T09:16:49.482Z,38.45
2023-02-08T09:19:25.102Z,42.95
2023-02-08T09:22:01.039Z,45.25
2023-02-08T09:24:40.362Z,56.07
2023-02-08T09:27:16.711Z,44.15
2023-02-08T09:29:54.976Z,51.15
2023-02-08T09:32:40.182Z,50.73
2023-02-08T09:35:16.772Z,49.58
2023-02-08T09:37:51.182Z,50.20
2023-02-08T09:46:38.823Z,41.60
2023-02-08T09:49:17.833Z,42.97
2023-02-08T09:51:56.831Z,45.40
2023-02-08T09:54:31.483Z,41.85
2023-02-08T09:57:08.265Z,48.13
2023-02-08T09:59:45.418Z,42.40
2023-02-08T10:02:27.471Z,46.17
2023-02-08T10:05:06.864Z,41.95
2023-02-08T10:07:44.377Z,43.30
2023-02-08T10:10:21.849Z,43.03
2023-02-08T10:13:01.472Z,44.65
2023-02-08T10:15:39.896Z,40.25
2023-02-08T10:18:24.803Z,48.35
2023-02-08T10:21:20.659Z,46.25
2023-02-08T10:23:56.016Z,46.05
2023-02-08T10:26:37.684Z,42.13
2023-02-08T10:29:26.747Z,41.45
2023-02-08T10:32:07.642Z,42.92
2023-02-08T10:34:42.152Z,42.92
2023-02-08T10:37:23.689Z,41.83
2023-02-08T10:39:59.579Z,42.53
2023-02-08T10:42:36.599Z,43.63
2023-02-08T10:45:24.537Z,42.97
2023-02-08T10:48:04.867Z,49.43
2023-02-08T10:50:41.023Z,44.72
2023-02-08T10:59:01.065Z,47.50
2023-02-08T11:07:57.623Z,46.60
2023-02-08T11:10:38.073Z,50.08
2023-02-08T11:13:21.900Z,52.90
2023-02-08T11:15:59.273Z,47.15
2023-02-08T11:18:36.330Z,46.90
2023-02-08T11:21:13.807Z,42.55
2023-02-08T11:23:54.261Z,41.63
2023-02-08T11:26:36.664Z,45.17
2023-02-08T11:29:17.393Z,52.83
2023-02-08T11:32:06.079Z,49.47
2023-02-08T11:34:43.428Z,53.25
2023-02-08T11:37:23.525Z,49.08
2023-02-08T11:39:57.791Z,52.20
2023-02-08T11:42:38.441Z,50.05
2023-02-08T11:45:22.805Z,49.27
2023-02-08T11:51:03.142Z,47.95
2023-02-08T11:53:44.787Z,46.08
2023-02-08T11:56:28.040Z,49.03
2023-02-08T11:59:20.088Z,53.22
2023-02-08T12:02:02.913Z,45.10
2023-02-08T12:04:40.345Z,45.55
2023-02-08T12:07:22.329Z,51.10
2023-02-08T12:10:24.978Z,47.90
2023-02-08T12:13:10.293Z,51.17
2023-02-08T12:15:58.361Z,44.80
2023-02-08T12:18:45.930Z,47.50
2023-02-08T12:21:21.920Z,50.30
2023-02-08T12:23:58.033Z,49.92
2023-02-08T12:29:48.125Z,52.65
2023-02-08T12:32:52.718Z,53.08
2023-02-08T12:36:03.684Z,56.17
2023-02-08T12:39:18.502Z,52.22
2023-02-08T12:42:12.885Z,51.80
2023-02-08T12:44:57.425Z,39.90
2023-02-08T12:47:40.768Z,43.05
2023-02-08T12:50:21.175Z,49.73
2023-02-08T12:53:04.917Z,49.28
2023-02-08T12:55:50.190Z,49.03
2023-02-08T12:58:24.904Z,51.17
2023-02-08T13:01:03.884Z,51.78
2023-02-08T13:03:43.788Z,49.15
2023-02-08T13:06:20.487Z,56.40
2023-02-08T13:09:17.568Z,55.05
2023-02-08T13:15:07.057Z,47.95
2023-02-08T13:24:25.226Z,47.30
2023-02-08T13:27:03.512Z,52.27
2023-02-08T13:29:42.814Z,55.70
2023-02-08T13:32:22.306Z,54.38
2023-02-08T13:35:02.281Z,46.25
2023-02-08T13:37:38.972Z,55.72
2023-02-08T13:40:29.144Z,50.60
2023-02-08T13:43:09.673Z,55.22
2023-02-08T13:45:56.936Z,59.72
2023-02-08T13:48:44.484Z,52.10
2023-02-08T13:51:49.655Z,51.75
2023-02-08T13:54:26.076Z,54.65
2023-02-08T13:57:09.390Z,49.55
2023-02-08T13:59:47.259Z,53.95
2023-02-08T14:02:34.210Z,53.90
2023-02-08T14:05:05.651Z,47.72
2023-02-08T14:07:49.768Z,48.28
2023-02-08T14:10:37.280Z,50.53
2023-02-08T14:13:25.079Z,48.50
2023-02-08T14:16:19.952Z,43.45
2023-02-08T14:28:17.154Z,43.13
2023-02-08T14:31:08.689Z,51.25
2023-02-08T14:33:59.342Z,42.58
2023-02-08T14:39:50.762Z,79.85
2023-02-08T14:43:06.056Z,48.40
2023-02-08T14:48:52.860Z,55.05
2023-02-08T14:51:32.943Z,52.78
2023-02-08T14:54:19.432Z,50.00
2023-02-08T14:57:02.729Z,54.33
2023-02-08T14:59:42.651Z,60.00
2023-02-08T15:05:35.276Z,64.10
2023-02-08T15:08:12.613Z,65.93
2023-02-08T15:10:48.512Z,67.30
2023-02-08T15:13:35.970Z,65.03
2023-02-08T15:16:21.456Z,58.73
2023-02-08T15:18:57.584Z,69.10
2023-02-08T15:24:43.247Z,62.30
2023-02-08T15:27:31.309Z,71.17
2023-02-08T15:33:07.801Z,64.47
2023-02-08T15:35:53.557Z,64.68
2023-02-08T15:38:36.304Z,80.45
2023-02-08T15:41:13.870Z,76.65
2023-02-08T15:44:07.291Z,66.05
2023-02-08T15:46:46.739Z,79.10
2023-02-08T15:52:24.164Z,86.13
2023-02-08T15:58:02.988Z,72.32
2023-02-08T16:00:40.526Z,71.85
2023-02-08T16:03:24.642Z,73.95
2023-02-08T16:06:05.924Z,83.97
2023-02-08T16:08:44.873Z,113.20
2023-02-08T16:17:30.380Z,211.40
2023-02-08T16:42:14.570Z,372.30
2023-02-08T16:45:17.213Z,306.30
2023-02-08T16:48:18.552Z,159.50
2023-02-08T17:09:54.501Z,85.70
2023-02-08T17:15:46.799Z,81.65
2023-02-08T17:18:25.791Z,90.13
2023-02-08T17:21:05.428Z,92.80
2023-02-08T17:23:41.092Z,93.72
2023-02-08T17:26:29.994Z,91.73
2023-02-08T17:29:18.476Z,87.88
2023-02-08T17:31:57.751Z,88.07
2023-02-08T17:34:42.375Z,110.57
2023-02-08T17:37:22.714Z,101.40
2023-02-08T17:40:00.462Z,90.28
2023-02-08T17:42:42.962Z,93.17
2023-02-08T17:45:23.535Z,86.32
2023-02-08T17:48:03.706Z,86.05
2023-02-08T17:50:39.403Z,84.72
2023-02-08T17:53:17.087Z,85.70
2023-02-08T17:55:54.394Z,85.70
2023-02-08T17:58:38.979Z,78.57
2023-02-08T18:01:19.449Z,88.93
2023-02-08T18:03:55.204Z,81.70
2023-02-08T18:06:46.256Z,90.30
2023-02-08T18:09:24.794Z,77.47
2023-02-08T18:12:08.288Z,77.43
2023-02-08T18:14:57.658Z,87.38
2023-02-08T18:17:37.868Z,79.10
2023-02-08T18:20:15.223Z,78.85
2023-02-08T18:22:52.236Z,84.15
2023-02-08T18:25:30.579Z,88.75
2023-02-08T18:28:15.496Z,82.32
2023-02-08T18:30:56.817Z,76.60
2023-02-08T18:33:43.492Z,82.90
2023-02-08T18:38:56.258Z,81.18
2023-02-08T18:41:34.271Z,92.60
2023-02-08T18:44:13.422Z,89.20
2023-02-08T18:46:55.744Z,82.80
2023-02-08T18:49:33.004Z,90.55
2023-02-08T18:52:08.964Z,92.70
2023-02-08T18:54:46.404Z,79.22
2023-02-08T18:57:22.066Z,81.10
2023-02-08T18:59:59.071Z,86.43
2023-02-08T19:02:40.519Z,80.32
2023-02-08T19:05:16.747Z,79.85
2023-02-08T19:07:53.732Z,89.85
2023-02-08T19:10:29.490Z,91.90
2023-02-08T19:13:08.302Z,90.20
2023-02-08T19:15:45.861Z,91.50
2023-02-08T19:18:25.740Z,94.28
2023-02-08T19:21:09.651Z,92.70
2023-02-08T19:23:45.452Z,84.10
2023-02-08T19:26:25.934Z,87.00
2023-02-08T19:29:04.456Z,87.82
2023-02-08T19:31:43.843Z,88.90
2023-02-08T19:34:20.200Z,87.80
2023-02-08T19:37:02.767Z,89.27
2023-02-08T19:40:08.441Z,210.32
2023-02-08T19:42:47.291Z,302.90
2023-02-08T19:45:26.382Z,167.05
2023-02-08T19:48:03.355Z,104.60
2023-02-08T19:50:48.006Z,100.97
2023-02-08T19:53:30.665Z,92.45
2023-02-08T19:56:13.973Z,92.68
2023-02-08T19:58:54.486Z,88.25
2023-02-08T20:01:41.340Z,90.13
2023-02-08T20:04:18.146Z,92.97
2023-02-08T20:09:55.713Z,98.57
2023-02-08T20:12:41.301Z,102.60
2023-02-08T20:15:18.017Z,106.55
2023-02-08T20:18:04.981Z,102.90
2023-02-08T20:20:48.202Z,100.20
2023-02-08T20:23:29.216Z,100.80
2023-02-08T20:26:13.459Z,100.15
2023-02-08T20:28:51.778Z,92.70
2023-02-08T20:31:29.776Z,98.65
2023-02-08T20:34:13.474Z,115.38
2023-02-08T20:37:06.483Z,123.55
2023-02-08T20:39:49.079Z,107.30
2023-02-08T20:42:33.674Z,95.43
2023-02-08T20:45:15.407Z,94.33
2023-02-08T20:47:52.311Z,95.30
2023-02-08T20:50:34.492Z,103.60
2023-02-08T20:53:12.674Z,100.30
2023-02-08T20:59:25.804Z,95.10
2023-02-08T21:02:00.784Z,95.43
2023-02-08T21:04:36.008Z,97.32
2023-02-08T21:07:10.887Z,100.97
2023-02-08T21:09:45.933Z,99.00
2023-02-08T21:12:23.348Z,105.25
2023-02-08T21:15:01.462Z,99.25
2023-02-08T21:17:39.346Z,99.78
2023-02-08T21:20:16.369Z,104.93
2023-02-08T21:22:51.837Z,100.13
2023-02-08T21:25:26.587Z,102.55
2023-02-08T21:28:01.771Z,115.95
2023-02-08T21:30:46.298Z,103.53
2023-02-08T21:39:35.527Z,108.40
2023-02-08T21:42:17.458Z,120.38
2023-02-08T21:44:54.664Z,113.13
2023-02-08T21:47:33.784Z,116.13
2023-02-08T21:50:38.090Z,120.03
2023-02-08T21:53:47.136Z,124.28
2023-02-08T22:06:28.393Z,123.82
2023-02-08T22:09:16.287Z,125.90
2023-02-08T22:15:13.691Z,128.55
2023-02-08T22:24:31.449Z,140.75
2023-02-08T22:27:13.968Z,137.80
2023-02-08T22:30:04.751Z,136.00
2023-02-08T22:32:41.215Z,145.38
2023-02-08T22:35:27.046Z,148.83
2023-02-08T22:41:30.445Z,157.50
2023-02-08T22:44:46.746Z,137.10
2023-02-08T22:47:28.258Z,150.55
2023-02-08T22:50:06.912Z,144.10
2023-02-08T22:52:59.688Z,145.52
2023-02-08T22:55:52.284Z,139.60
2023-02-08T22:58:33.176Z,137.60
2023-02-08T23:01:22.153Z,138.77
2023-02-08T23:07:26.194Z,129.63
2023-02-08T23:10:13.352Z,120.78
2023-02-08T23:13:11.365Z,111.63
2023-02-08T23:16:05.674Z,114.18
2023-02-08T23:19:03.774Z,115.43
2023-02-08T23:21:47.609Z,111.80
2023-02-08T23:24:27.898Z,106.43
2023-02-08T23:29:51.938Z,113.43
2023-02-08T23:35:08.695Z,107.60
2023-02-08T23:37:45.617Z,104.15
2023-02-08T23:40:22.034Z,108.53
2023-02-08T23:42:56.142Z,118.75
2023-02-08T23:45:30.443Z,114.38
2023-02-08T23:48:03.690Z,108.97
2023-02-08T23:50:41.631Z,108.43
2023-02-08T23:53:16.595Z,103.10
2023-02-08T23:55:51.322Z,110.25
2023-02-08T23:58:27.216Z,100.28
